Walcott, Iowa
Current Conditions -  °F | °C
As of 12:52 PM on Saturday 25 Oct 2014 (Local Time) from KDVN Reporting Station
Clear Clear  
Wind Chill: 70°   Ceiling: Unl
Heat Index: 70°   Visibility: 10mi
Dew Point: 35°   Wind: 13mph
Humidity: 28%   Direction: 340°NNW
Pressure: 30.03"   Gusts: NA
Location:  41.58°N, 90.77°W
Report Text: KDVN 251752Z AUTO 34011KT 10SM CLR 21/02 A3003 RMK AO2 SLP168 T02110017 10217 20100 58001 TSNO
Loading
Personal Weather Stations






























Interactive Weather Map
Tropical Storm Tracking
New forecast layout! Learn more

10-Day Weather Forecast

Advertisements
Track Severe Weather on mobile